sensor_id;sensor_type;location;lat;lon;timestamp;P1;durP1;ratioP1;P2;durP2;ratioP2
43552;SDS011;29153;42.696;23.218;2023-03-23T00:05:53;26.57;;;14.78;;
43552;SDS011;29153;42.696;23.218;2023-03-23T00:08:25;27.40;;;16.52;;
43552;SDS011;29153;42.696;23.218;2023-03-23T00:10:54;20.60;;;11.78;;
43552;SDS011;29153;42.696;23.218;2023-03-23T00:13:33;31.42;;;18.50;;
43552;SDS011;29153;42.696;23.218;2023-03-23T00:16:15;18.27;;;9.63;;
43552;SDS011;29153;42.696;23.218;2023-03-23T00:18:48;17.55;;;9.83;;
43552;SDS011;29153;42.696;23.218;2023-03-23T00:21:22;19.57;;;10.98;;
43552;SDS011;29153;42.696;23.218;2023-03-23T00:23:52;18.40;;;9.90;;
43552;SDS011;29153;42.696;23.218;2023-03-23T00:33:44;13.88;;;6.95;;
43552;SDS011;29153;42.696;23.218;2023-03-23T00:36:16;14.38;;;6.83;;
43552;SDS011;29153;42.696;23.218;2023-03-23T00:38:46;16.30;;;7.65;;
43552;SDS011;29153;42.696;23.218;2023-03-23T00:51:23;14.47;;;8.18;;
43552;SDS011;29153;42.696;23.218;2023-03-23T00:57:39;18.55;;;9.60;;
43552;SDS011;29153;42.696;23.218;2023-03-23T01:00:18;21.15;;;10.35;;
43552;SDS011;29153;42.696;23.218;2023-03-23T01:03:16;18.57;;;10.00;;
43552;SDS011;29153;42.696;23.218;2023-03-23T01:09:10;14.43;;;7.08;;
43552;SDS011;29153;42.696;23.218;2023-03-23T01:20:17;15.08;;;8.60;;
43552;SDS011;29153;42.696;23.218;2023-03-23T01:22:46;18.27;;;9.95;;
43552;SDS011;29153;42.696;23.218;2023-03-23T01:25:22;16.35;;;9.13;;
43552;SDS011;29153;42.696;23.218;2023-03-23T01:31:14;12.30;;;6.10;;
43552;SDS011;29153;42.696;23.218;2023-03-23T01:33:45;12.53;;;8.10;;
43552;SDS011;29153;42.696;23.218;2023-03-23T01:36:21;18.62;;;11.28;;
43552;SDS011;29153;42.696;23.218;2023-03-23T01:38:55;12.65;;;7.60;;
43552;SDS011;29153;42.696;23.218;2023-03-23T01:41:35;23.50;;;13.40;;
43552;SDS011;29153;42.696;23.218;2023-03-23T01:57:05;18.82;;;11.73;;
43552;SDS011;29153;42.696;23.218;2023-03-23T01:59:42;13.98;;;7.92;;
43552;SDS011;29153;42.696;23.218;2023-03-23T02:09:08;16.57;;;9.63;;
43552;SDS011;29153;42.696;23.218;2023-03-23T02:11:43;22.17;;;12.93;;
43552;SDS011;29153;42.696;23.218;2023-03-23T02:14:20;16.77;;;8.33;;
43552;SDS011;29153;42.696;23.218;2023-03-23T02:17:00;18.15;;;9.58;;
43552;SDS011;29153;42.696;23.218;2023-03-23T02:25:40;15.95;;;8.35;;
43552;SDS011;29153;42.696;23.218;2023-03-23T02:34:33;16.32;;;7.62;;
43552;SDS011;29153;42.696;23.218;2023-03-23T02:37:07;17.17;;;8.30;;
43552;SDS011;29153;42.696;23.218;2023-03-23T02:39:49;14.65;;;7.67;;
43552;SDS011;29153;42.696;23.218;2023-03-23T02:49:07;16.77;;;8.00;;
43552;SDS011;29153;42.696;23.218;2023-03-23T02:51:37;15.83;;;7.50;;
43552;SDS011;29153;42.696;23.218;2023-03-23T02:54:08;13.80;;;7.70;;
43552;SDS011;29153;42.696;23.218;2023-03-23T02:56:37;15.85;;;8.60;;
43552;SDS011;29153;42.696;23.218;2023-03-23T02:59:07;15.23;;;8.45;;
43552;SDS011;29153;42.696;23.218;2023-03-23T03:04:07;15.70;;;8.48;;
43552;SDS011;29153;42.696;23.218;2023-03-23T03:09:48;42.20;;;15.90;;
43552;SDS011;29153;42.696;23.218;2023-03-23T03:12:26;20.97;;;10.48;;
43552;SDS011;29153;42.696;23.218;2023-03-23T03:15:11;29.50;;;12.98;;
43552;SDS011;29153;42.696;23.218;2023-03-23T03:17:44;19.02;;;9.88;;
43552;SDS011;29153;42.696;23.218;2023-03-23T03:20:16;20.23;;;10.03;;
43552;SDS011;29153;42.696;23.218;2023-03-23T03:22:44;17.90;;;9.68;;
43552;SDS011;29153;42.696;23.218;2023-03-23T03:25:13;22.25;;;8.78;;
43552;SDS011;29153;42.696;23.218;2023-03-23T03:27:43;19.52;;;10.23;;
43552;SDS011;29153;42.696;23.218;2023-03-23T03:30:15;16.87;;;8.73;;
43552;SDS011;29153;42.696;23.218;2023-03-23T03:32:46;18.42;;;9.40;;
43552;SDS011;29153;42.696;23.218;2023-03-23T03:35:23;19.80;;;10.20;;
43552;SDS011;29153;42.696;23.218;2023-03-23T03:37:53;17.57;;;8.13;;
43552;SDS011;29153;42.696;23.218;2023-03-23T03:40:22;17.45;;;7.78;;
43552;SDS011;29153;42.696;23.218;2023-03-23T03:42:50;15.72;;;7.75;;
43552;SDS011;29153;42.696;23.218;2023-03-23T03:45:18;17.73;;;8.65;;
43552;SDS011;29153;42.696;23.218;2023-03-23T03:47:46;19.50;;;9.40;;
43552;SDS011;29153;42.696;23.218;2023-03-23T03:50:14;21.37;;;9.10;;
43552;SDS011;29153;42.696;23.218;2023-03-23T03:52:42;20.32;;;9.60;;
43552;SDS011;29153;42.696;23.218;2023-03-23T03:55:11;20.65;;;10.35;;
43552;SDS011;29153;42.696;23.218;2023-03-23T03:57:39;20.43;;;9.68;;
43552;SDS011;29153;42.696;23.218;2023-03-23T04:00:07;20.72;;;9.03;;
43552;SDS011;29153;42.696;23.218;2023-03-23T04:02:41;18.73;;;9.40;;
43552;SDS011;29153;42.696;23.218;2023-03-23T04:05:11;21.65;;;8.05;;
43552;SDS011;29153;42.696;23.218;2023-03-23T04:07:39;20.82;;;8.78;;
43552;SDS011;29153;42.696;23.218;2023-03-23T04:10:08;18.12;;;8.20;;
43552;SDS011;29153;42.696;23.218;2023-03-23T04:12:40;24.15;;;10.18;;
43552;SDS011;29153;42.696;23.218;2023-03-23T04:15:07;21.30;;;9.55;;
43552;SDS011;29153;42.696;23.218;2023-03-23T04:17:36;20.65;;;10.03;;
43552;SDS011;29153;42.696;23.218;2023-03-23T04:20:05;24.15;;;9.75;;
43552;SDS011;29153;42.696;23.218;2023-03-23T04:22:43;19.80;;;10.08;;
43552;SDS011;29153;42.696;23.218;2023-03-23T04:25:12;24.45;;;10.23;;
43552;SDS011;29153;42.696;23.218;2023-03-23T04:27:40;22.50;;;10.68;;
43552;SDS011;29153;42.696;23.218;2023-03-23T04:30:12;21.95;;;10.45;;
43552;SDS011;29153;42.696;23.218;2023-03-23T04:32:40;17.95;;;8.75;;
43552;SDS011;29153;42.696;23.218;2023-03-23T04:35:12;16.85;;;8.05;;
43552;SDS011;29153;42.696;23.218;2023-03-23T04:37:40;20.23;;;9.80;;
43552;SDS011;29153;42.696;23.218;2023-03-23T04:40:08;19.62;;;10.30;;
43552;SDS011;29153;42.696;23.218;2023-03-23T04:42:38;23.38;;;11.80;;
43552;SDS011;29153;42.696;23.218;2023-03-23T04:45:09;19.65;;;9.95;;
43552;SDS011;29153;42.696;23.218;2023-03-23T04:47:36;19.87;;;9.48;;
43552;SDS011;29153;42.696;23.218;2023-03-23T04:50:10;19.40;;;10.58;;
43552;SDS011;29153;42.696;23.218;2023-03-23T04:52:39;17.55;;;9.60;;
43552;SDS011;29153;42.696;23.218;2023-03-23T04:55:08;20.10;;;10.75;;
43552;SDS011;29153;42.696;23.218;2023-03-23T04:57:36;24.82;;;14.00;;
43552;SDS011;29153;42.696;23.218;2023-03-23T05:00:04;21.50;;;11.10;;
43552;SDS011;29153;42.696;23.218;2023-03-23T05:02:40;22.60;;;11.80;;
43552;SDS011;29153;42.696;23.218;2023-03-23T05:05:11;19.02;;;11.50;;
43552;SDS011;29153;42.696;23.218;2023-03-23T05:11:04;20.92;;;10.98;;
43552;SDS011;29153;42.696;23.218;2023-03-23T05:13:35;24.57;;;10.58;;
43552;SDS011;29153;42.696;23.218;2023-03-23T05:16:13;24.10;;;13.50;;
43552;SDS011;29153;42.696;23.218;2023-03-23T05:22:22;24.95;;;12.20;;
43552;SDS011;29153;42.696;23.218;2023-03-23T05:24:58;22.65;;;11.68;;
43552;SDS011;29153;42.696;23.218;2023-03-23T05:27:31;19.55;;;9.75;;
43552;SDS011;29153;42.696;23.218;2023-03-23T05:29:59;20.68;;;11.08;;
43552;SDS011;29153;42.696;23.218;2023-03-23T05:32:27;22.27;;;12.10;;
43552;SDS011;29153;42.696;23.218;2023-03-23T05:34:56;18.20;;;10.78;;
43552;SDS011;29153;42.696;23.218;2023-03-23T05:37:25;22.80;;;10.82;;
43552;SDS011;29153;42.696;23.218;2023-03-23T05:39:58;19.50;;;10.53;;
43552;SDS011;29153;42.696;23.218;2023-03-23T05:42:28;23.75;;;11.57;;
43552;SDS011;29153;42.696;23.218;2023-03-23T05:44:55;21.02;;;11.88;;
43552;SDS011;29153;42.696;23.218;2023-03-23T05:47:24;19.00;;;9.80;;
43552;SDS011;29153;42.696;23.218;2023-03-23T05:49:51;18.87;;;10.23;;
43552;SDS011;29153;42.696;23.218;2023-03-23T05:52:19;18.25;;;9.25;;
43552;SDS011;29153;42.696;23.218;2023-03-23T05:54:48;18.30;;;11.00;;
43552;SDS011;29153;42.696;23.218;2023-03-23T05:57:16;20.23;;;12.40;;
43552;SDS011;29153;42.696;23.218;2023-03-23T05:59:46;20.12;;;11.35;;
43552;SDS011;29153;42.696;23.218;2023-03-23T06:02:19;21.25;;;13.20;;
43552;SDS011;29153;42.696;23.218;2023-03-23T06:04:48;24.07;;;15.45;;
43552;SDS011;29153;42.696;23.218;2023-03-23T06:07:20;24.15;;;13.80;;
43552;SDS011;29153;42.696;23.218;2023-03-23T06:09:48;29.37;;;17.07;;
43552;SDS011;29153;42.696;23.218;2023-03-23T06:12:16;38.50;;;18.48;;
43552;SDS011;29153;42.696;23.218;2023-03-23T06:14:47;36.48;;;17.37;;
43552;SDS011;29153;42.696;23.218;2023-03-23T06:17:24;37.23;;;17.17;;
43552;SDS011;29153;42.696;23.218;2023-03-23T06:23:14;30.00;;;16.10;;
43552;SDS011;29153;42.696;23.218;2023-03-23T06:28:17;32.83;;;16.70;;
43552;SDS011;29153;42.696;23.218;2023-03-23T06:33:55;31.90;;;15.03;;
43552;SDS011;29153;42.696;23.218;2023-03-23T06:39:29;32.63;;;16.45;;
43552;SDS011;29153;42.696;23.218;2023-03-23T06:41:57;38.53;;;18.23;;
43552;SDS011;29153;42.696;23.218;2023-03-23T06:44:29;33.20;;;17.57;;
43552;SDS011;29153;42.696;23.218;2023-03-23T06:47:22;32.03;;;17.30;;
43552;SDS011;29153;42.696;23.218;2023-03-23T06:49:53;29.23;;;15.38;;
43552;SDS011;29153;42.696;23.218;2023-03-23T06:52:24;31.60;;;17.15;;
43552;SDS011;29153;42.696;23.218;2023-03-23T06:58:44;22.05;;;12.30;;
43552;SDS011;29153;42.696;23.218;2023-03-23T07:01:17;18.77;;;11.25;;
43552;SDS011;29153;42.696;23.218;2023-03-23T07:12:25;25.50;;;14.00;;
43552;SDS011;29153;42.696;23.218;2023-03-23T07:15:28;24.43;;;13.75;;
43552;SDS011;29153;42.696;23.218;2023-03-23T07:18:03;27.95;;;14.75;;
43552;SDS011;29153;42.696;23.218;2023-03-23T07:20:40;26.87;;;14.07;;
43552;SDS011;29153;42.696;23.218;2023-03-23T07:23:08;30.48;;;16.25;;
43552;SDS011;29153;42.696;23.218;2023-03-23T07:25:36;26.37;;;13.25;;
43552;SDS011;29153;42.696;23.218;2023-03-23T07:28:04;27.15;;;14.68;;
43552;SDS011;29153;42.696;23.218;2023-03-23T07:35:42;25.35;;;13.60;;
43552;SDS011;29153;42.696;23.218;2023-03-23T07:38:11;26.80;;;14.35;;
43552;SDS011;29153;42.696;23.218;2023-03-23T07:40:51;25.50;;;12.63;;
43552;SDS011;29153;42.696;23.218;2023-03-23T07:57:51;20.92;;;12.28;;
43552;SDS011;29153;42.696;23.218;2023-03-23T08:41:38;16.42;;;8.10;;
43552;SDS011;29153;42.696;23.218;2023-03-23T08:44:17;16.52;;;9.20;;
43552;SDS011;29153;42.696;23.218;2023-03-23T08:46:49;14.63;;;8.95;;
43552;SDS011;29153;42.696;23.218;2023-03-23T08:49:19;18.42;;;9.58;;
43552;SDS011;29153;42.696;23.218;2023-03-23T08:51:55;17.75;;;9.15;;
43552;SDS011;29153;42.696;23.218;2023-03-23T08:54:27;13.75;;;8.50;;
43552;SDS011;29153;42.696;23.218;2023-03-23T08:57:00;14.58;;;8.03;;
43552;SDS011;29153;42.696;23.218;2023-03-23T08:59:28;12.20;;;7.72;;
43552;SDS011;29153;42.696;23.218;2023-03-23T09:01:56;9.85;;;5.72;;
43552;SDS011;29153;42.696;23.218;2023-03-23T09:04:24;11.48;;;7.00;;
43552;SDS011;29153;42.696;23.218;2023-03-23T09:06:51;20.10;;;8.00;;
43552;SDS011;29153;42.696;23.218;2023-03-23T09:09:19;65.15;;;35.80;;
43552;SDS011;29153;42.696;23.218;2023-03-23T09:11:47;19.02;;;11.60;;
43552;SDS011;29153;42.696;23.218;2023-03-23T09:14:14;17.80;;;9.38;;
43552;SDS011;29153;42.696;23.218;2023-03-23T09:20:22;13.30;;;7.40;;
43552;SDS011;29153;42.696;23.218;2023-03-23T09:22:59;19.67;;;12.55;;
43552;SDS011;29153;42.696;23.218;2023-03-23T09:25:30;10.32;;;6.67;;
43552;SDS011;29153;42.696;23.218;2023-03-23T09:27:58;42.83;;;25.05;;
43552;SDS011;29153;42.696;23.218;2023-03-23T09:30:29;11.85;;;6.70;;
43552;SDS011;29153;42.696;23.218;2023-03-23T09:44:14;11.20;;;6.03;;
43552;SDS011;29153;42.696;23.218;2023-03-23T09:46:55;11.10;;;6.55;;
43552;SDS011;29153;42.696;23.218;2023-03-23T09:49:30;9.13;;;5.20;;
43552;SDS011;29153;42.696;23.218;2023-03-23T09:52:17;11.43;;;6.00;;
43552;SDS011;29153;42.696;23.218;2023-03-23T09:54:35;12.68;;;6.83;;
43552;SDS011;29153;42.696;23.218;2023-03-23T10:00:10;9.55;;;5.62;;
43552;SDS011;29153;42.696;23.218;2023-03-23T10:05:34;12.40;;;5.92;;
43552;SDS011;29153;42.696;23.218;2023-03-23T10:08:17;11.57;;;5.53;;
43552;SDS011;29153;42.696;23.218;2023-03-23T10:10:57;9.18;;;5.47;;
43552;SDS011;29153;42.696;23.218;2023-03-23T10:16:22;11.18;;;6.37;;
43552;SDS011;29153;42.696;23.218;2023-03-23T10:18:59;13.53;;;7.20;;
43552;SDS011;29153;42.696;23.218;2023-03-23T10:21:54;13.83;;;7.10;;
43552;SDS011;29153;42.696;23.218;2023-03-23T10:24:37;9.78;;;5.60;;
43552;SDS011;29153;42.696;23.218;2023-03-23T10:32:51;16.65;;;9.45;;
43552;SDS011;29153;42.696;23.218;2023-03-23T10:35:20;10.95;;;5.70;;
43552;SDS011;29153;42.696;23.218;2023-03-23T10:37:50;10.98;;;5.83;;
43552;SDS011;29153;42.696;23.218;2023-03-23T10:40:21;10.32;;;5.67;;
43552;SDS011;29153;42.696;23.218;2023-03-23T10:42:48;12.68;;;7.45;;
43552;SDS011;29153;42.696;23.218;2023-03-23T10:50:41;10.35;;;5.87;;
43552;SDS011;29153;42.696;23.218;2023-03-23T10:53:16;11.45;;;6.50;;
43552;SDS011;29153;42.696;23.218;2023-03-23T10:55:43;9.08;;;5.83;;
43552;SDS011;29153;42.696;23.218;2023-03-23T10:58:13;8.75;;;5.67;;
43552;SDS011;29153;42.696;23.218;2023-03-23T11:00:53;13.03;;;8.83;;
43552;SDS011;29153;42.696;23.218;2023-03-23T11:03:25;11.40;;;5.47;;
43552;SDS011;29153;42.696;23.218;2023-03-23T11:06:10;13.35;;;8.60;;
43552;SDS011;29153;42.696;23.218;2023-03-23T11:08:38;24.60;;;13.58;;
43552;SDS011;29153;42.696;23.218;2023-03-23T11:11:29;16.37;;;9.55;;
43552;SDS011;29153;42.696;23.218;2023-03-23T11:14:23;11.83;;;7.40;;
43552;SDS011;29153;42.696;23.218;2023-03-23T11:17:02;12.35;;;5.58;;
43552;SDS011;29153;42.696;23.218;2023-03-23T11:19:35;14.98;;;7.60;;
43552;SDS011;29153;42.696;23.218;2023-03-23T11:24:40;14.65;;;8.30;;
43552;SDS011;29153;42.696;23.218;2023-03-23T11:27:15;12.53;;;7.37;;
43552;SDS011;29153;42.696;23.218;2023-03-23T11:29:56;9.50;;;5.58;;
43552;SDS011;29153;42.696;23.218;2023-03-23T11:32:21;10.82;;;5.97;;
43552;SDS011;29153;42.696;23.218;2023-03-23T11:35:03;11.18;;;6.75;;
43552;SDS011;29153;42.696;23.218;2023-03-23T11:40:15;12.07;;;8.43;;
43552;SDS011;29153;42.696;23.218;2023-03-23T11:42:44;9.03;;;5.08;;
43552;SDS011;29153;42.696;23.218;2023-03-23T11:45:18;13.68;;;7.75;;
43552;SDS011;29153;42.696;23.218;2023-03-23T11:47:50;12.30;;;7.75;;
43552;SDS011;29153;42.696;23.218;2023-03-23T11:50:35;8.53;;;4.80;;
43552;SDS011;29153;42.696;23.218;2023-03-23T11:58:56;11.10;;;6.25;;
43552;SDS011;29153;42.696;23.218;2023-03-23T12:04:23;14.05;;;6.22;;
43552;SDS011;29153;42.696;23.218;2023-03-23T12:07:27;9.53;;;5.35;;
43552;SDS011;29153;42.696;23.218;2023-03-23T12:15:45;8.85;;;4.53;;
43552;SDS011;29153;42.696;23.218;2023-03-23T12:18:21;8.30;;;4.50;;
43552;SDS011;29153;42.696;23.218;2023-03-23T12:24:20;8.53;;;6.00;;
43552;SDS011;29153;42.696;23.218;2023-03-23T12:27:06;10.38;;;6.45;;
43552;SDS011;29153;42.696;23.218;2023-03-23T12:30:02;11.73;;;7.37;;
43552;SDS011;29153;42.696;23.218;2023-03-23T12:39:10;8.73;;;4.95;;
43552;SDS011;29153;42.696;23.218;2023-03-23T12:41:41;10.55;;;6.92;;
43552;SDS011;29153;42.696;23.218;2023-03-23T12:44:14;7.12;;;4.28;;
43552;SDS011;29153;42.696;23.218;2023-03-23T12:49:40;8.80;;;5.10;;
43552;SDS011;29153;42.696;23.218;2023-03-23T12:52:16;7.60;;;3.85;;
43552;SDS011;29153;42.696;23.218;2023-03-23T12:54:58;8.65;;;5.12;;
43552;SDS011;29153;42.696;23.218;2023-03-23T12:57:32;8.73;;;4.72;;
43552;SDS011;29153;42.696;23.218;2023-03-23T13:00:19;8.05;;;4.97;;
43552;SDS011;29153;42.696;23.218;2023-03-23T13:02:58;10.63;;;4.25;;
43552;SDS011;29153;42.696;23.218;2023-03-23T13:05:46;9.20;;;4.78;;
43552;SDS011;29153;42.696;23.218;2023-03-23T13:08:32;7.87;;;4.30;;
43552;SDS011;29153;42.696;23.218;2023-03-23T13:11:04;7.55;;;4.20;;
43552;SDS011;29153;42.696;23.218;2023-03-23T13:13:56;6.95;;;3.65;;
43552;SDS011;29153;42.696;23.218;2023-03-23T13:16:16;7.35;;;3.85;;
43552;SDS011;29153;42.696;23.218;2023-03-23T13:19:04;7.97;;;4.97;;
43552;SDS011;29153;42.696;23.218;2023-03-23T13:21:38;7.67;;;4.25;;
43552;SDS011;29153;42.696;23.218;2023-03-23T13:24:23;8.13;;;4.62;;
43552;SDS011;29153;42.696;23.218;2023-03-23T13:26:52;7.45;;;4.50;;
43552;SDS011;29153;42.696;23.218;2023-03-23T13:29:23;7.40;;;4.03;;
43552;SDS011;29153;42.696;23.218;2023-03-23T13:32:03;10.28;;;4.12;;
43552;SDS011;29153;42.696;23.218;2023-03-23T13:34:40;5.70;;;3.60;;
43552;SDS011;29153;42.696;23.218;2023-03-23T13:37:10;6.12;;;3.52;;
43552;SDS011;29153;42.696;23.218;2023-03-23T13:39:56;9.18;;;3.95;;
43552;SDS011;29153;42.696;23.218;2023-03-23T13:42:26;6.37;;;3.52;;
43552;SDS011;29153;42.696;23.218;2023-03-23T13:45:05;11.45;;;3.92;;
43552;SDS011;29153;42.696;23.218;2023-03-23T13:47:42;6.72;;;3.72;;
43552;SDS011;29153;42.696;23.218;2023-03-23T14:14:00;6.42;;;4.20;;
43552;SDS011;29153;42.696;23.218;2023-03-23T14:16:38;6.90;;;3.85;;
43552;SDS011;29153;42.696;23.218;2023-03-23T14:19:23;7.00;;;4.10;;
43552;SDS011;29153;42.696;23.218;2023-03-23T14:21:57;7.47;;;4.37;;
43552;SDS011;29153;42.696;23.218;2023-03-23T14:24:29;9.30;;;4.55;;
43552;SDS011;29153;42.696;23.218;2023-03-23T14:27:02;8.45;;;5.62;;
43552;SDS011;29153;42.696;23.218;2023-03-23T14:29:41;11.18;;;4.35;;
43552;SDS011;29153;42.696;23.218;2023-03-23T14:32:14;9.43;;;4.42;;
43552;SDS011;29153;42.696;23.218;2023-03-23T14:34:42;6.83;;;3.77;;
43552;SDS011;29153;42.696;23.218;2023-03-23T14:37:12;6.92;;;3.87;;
43552;SDS011;29153;42.696;23.218;2023-03-23T14:39:44;8.83;;;4.65;;
43552;SDS011;29153;42.696;23.218;2023-03-23T14:42:14;9.00;;;4.62;;
43552;SDS011;29153;42.696;23.218;2023-03-23T14:44:44;7.12;;;4.60;;
43552;SDS011;29153;42.696;23.218;2023-03-23T14:47:19;6.12;;;3.62;;
43552;SDS011;29153;42.696;23.218;2023-03-23T14:49:45;6.95;;;3.47;;
43552;SDS011;29153;42.696;23.218;2023-03-23T14:52:21;7.12;;;3.90;;
43552;SDS011;29153;42.696;23.218;2023-03-23T14:54:48;9.63;;;4.35;;
43552;SDS011;29153;42.696;23.218;2023-03-23T14:57:17;8.25;;;4.65;;
43552;SDS011;29153;42.696;23.218;2023-03-23T14:59:47;7.47;;;4.00;;
43552;SDS011;29153;42.696;23.218;2023-03-23T15:02:31;13.18;;;6.15;;
43552;SDS011;29153;42.696;23.218;2023-03-23T15:05:13;11.97;;;5.50;;
43552;SDS011;29153;42.696;23.218;2023-03-23T15:07:40;9.90;;;4.60;;
43552;SDS011;29153;42.696;23.218;2023-03-23T15:10:14;9.13;;;4.20;;
43552;SDS011;29153;42.696;23.218;2023-03-23T15:12:44;8.58;;;4.45;;
43552;SDS011;29153;42.696;23.218;2023-03-23T15:15:19;8.03;;;4.37;;
43552;SDS011;29153;42.696;23.218;2023-03-23T15:17:50;8.05;;;4.80;;
43552;SDS011;29153;42.696;23.218;2023-03-23T15:20:25;9.38;;;4.70;;
43552;SDS011;29153;42.696;23.218;2023-03-23T15:23:07;7.28;;;4.60;;
43552;SDS011;29153;42.696;23.218;2023-03-23T15:25:36;10.20;;;4.55;;
43552;SDS011;29153;42.696;23.218;2023-03-23T15:28:18;8.15;;;4.08;;
43552;SDS011;29153;42.696;23.218;2023-03-23T15:30:53;8.83;;;3.90;;
43552;SDS011;29153;42.696;23.218;2023-03-23T15:33:23;9.00;;;5.03;;
43552;SDS011;29153;42.696;23.218;2023-03-23T15:35:55;9.00;;;5.05;;
43552;SDS011;29153;42.696;23.218;2023-03-23T15:42:00;11.88;;;5.17;;
43552;SDS011;29153;42.696;23.218;2023-03-23T15:44:32;11.68;;;5.90;;
43552;SDS011;29153;42.696;23.218;2023-03-23T15:47:12;9.90;;;5.25;;
43552;SDS011;29153;42.696;23.218;2023-03-23T15:50:02;8.73;;;5.08;;
43552;SDS011;29153;42.696;23.218;2023-03-23T15:52:26;8.03;;;4.72;;
43552;SDS011;29153;42.696;23.218;2023-03-23T15:54:57;9.20;;;5.28;;
43552;SDS011;29153;42.696;23.218;2023-03-23T15:57:28;9.30;;;5.87;;
43552;SDS011;29153;42.696;23.218;2023-03-23T16:05:23;10.45;;;5.50;;
43552;SDS011;29153;42.696;23.218;2023-03-23T16:07:53;12.50;;;6.10;;
43552;SDS011;29153;42.696;23.218;2023-03-23T16:10:25;11.97;;;5.75;;
43552;SDS011;29153;42.696;23.218;2023-03-23T16:15:29;40.98;;;16.35;;
43552;SDS011;29153;42.696;23.218;2023-03-23T16:17:58;14.18;;;7.42;;
43552;SDS011;29153;42.696;23.218;2023-03-23T16:20:34;12.88;;;7.00;;
43552;SDS011;29153;42.696;23.218;2023-03-23T16:31:37;16.75;;;8.95;;
43552;SDS011;29153;42.696;23.218;2023-03-23T16:34:18;25.50;;;11.65;;
43552;SDS011;29153;42.696;23.218;2023-03-23T16:36:53;17.45;;;7.47;;
43552;SDS011;29153;42.696;23.218;2023-03-23T16:39:33;11.53;;;6.92;;
43552;SDS011;29153;42.696;23.218;2023-03-23T17:23:17;16.73;;;6.30;;
43552;SDS011;29153;42.696;23.218;2023-03-23T17:26:04;13.38;;;5.70;;
43552;SDS011;29153;42.696;23.218;2023-03-23T18:03:01;14.03;;;6.30;;
43552;SDS011;29153;42.696;23.218;2023-03-23T18:39:57;11.95;;;6.08;;
43552;SDS011;29153;42.696;23.218;2023-03-23T18:42:29;14.78;;;7.10;;
43552;SDS011;29153;42.696;23.218;2023-03-23T18:44:58;10.63;;;5.97;;
43552;SDS011;29153;42.696;23.218;2023-03-23T18:47:30;15.32;;;6.28;;
43552;SDS011;29153;42.696;23.218;2023-03-23T18:50:05;12.82;;;7.00;;
43552;SDS011;29153;42.696;23.218;2023-03-23T18:52:38;13.55;;;6.37;;
43552;SDS011;29153;42.696;23.218;2023-03-23T18:55:23;11.80;;;4.70;;
43552;SDS011;29153;42.696;23.218;2023-03-23T19:03:38;11.40;;;6.03;;
43552;SDS011;29153;42.696;23.218;2023-03-23T19:06:18;11.38;;;5.55;;
43552;SDS011;29153;42.696;23.218;2023-03-23T19:08:56;10.82;;;6.28;;
43552;SDS011;29153;42.696;23.218;2023-03-23T19:11:46;10.88;;;5.70;;
43552;SDS011;29153;42.696;23.218;2023-03-23T19:14:51;9.05;;;4.87;;
43552;SDS011;29153;42.696;23.218;2023-03-23T19:27:31;12.10;;;6.17;;
43552;SDS011;29153;42.696;23.218;2023-03-23T19:30:32;9.25;;;5.75;;
43552;SDS011;29153;42.696;23.218;2023-03-23T19:39:22;12.43;;;6.83;;
43552;SDS011;29153;42.696;23.218;2023-03-23T19:42:11;9.70;;;5.58;;
43552;SDS011;29153;42.696;23.218;2023-03-23T19:44:51;11.22;;;6.17;;
43552;SDS011;29153;42.696;23.218;2023-03-23T19:47:23;9.98;;;5.60;;
43552;SDS011;29153;42.696;23.218;2023-03-23T19:49:54;11.68;;;6.65;;
43552;SDS011;29153;42.696;23.218;2023-03-23T20:19:52;11.35;;;6.22;;
43552;SDS011;29153;42.696;23.218;2023-03-23T20:22:21;10.05;;;5.67;;
43552;SDS011;29153;42.696;23.218;2023-03-23T20:24:54;13.25;;;6.97;;
43552;SDS011;29153;42.696;23.218;2023-03-23T20:27:30;11.50;;;5.85;;
43552;SDS011;29153;42.696;23.218;2023-03-23T20:30:18;10.50;;;5.45;;
43552;SDS011;29153;42.696;23.218;2023-03-23T20:36:27;13.75;;;5.65;;
43552;SDS011;29153;42.696;23.218;2023-03-23T20:43:00;11.75;;;6.10;;
43552;SDS011;29153;42.696;23.218;2023-03-23T21:11:25;13.65;;;6.37;;
43552;SDS011;29153;42.696;23.218;2023-03-23T21:17:51;13.72;;;6.37;;
43552;SDS011;29153;42.696;23.218;2023-03-23T21:20:30;11.70;;;6.53;;
43552;SDS011;29153;42.696;23.218;2023-03-23T21:23:06;11.38;;;6.35;;
43552;SDS011;29153;42.696;23.218;2023-03-23T21:25:34;12.45;;;6.47;;
43552;SDS011;29153;42.696;23.218;2023-03-23T21:28:04;13.30;;;6.50;;
43552;SDS011;29153;42.696;23.218;2023-03-23T21:30:31;10.93;;;5.78;;
43552;SDS011;29153;42.696;23.218;2023-03-23T21:32:59;10.65;;;6.15;;
43552;SDS011;29153;42.696;23.218;2023-03-23T21:35:26;13.85;;;6.80;;
43552;SDS011;29153;42.696;23.218;2023-03-23T21:37:54;12.80;;;6.62;;
43552;SDS011;29153;42.696;23.218;2023-03-23T21:40:22;12.98;;;6.35;;
43552;SDS011;29153;42.696;23.218;2023-03-23T21:42:50;11.97;;;6.83;;
43552;SDS011;29153;42.696;23.218;2023-03-23T21:45:17;14.68;;;7.25;;
43552;SDS011;29153;42.696;23.218;2023-03-23T21:47:48;14.70;;;7.25;;
43552;SDS011;29153;42.696;23.218;2023-03-23T21:50:18;15.60;;;7.87;;
43552;SDS011;29153;42.696;23.218;2023-03-23T21:52:46;14.20;;;7.25;;
43552;SDS011;29153;42.696;23.218;2023-03-23T21:57:42;12.23;;;6.35;;
43552;SDS011;29153;42.696;23.218;2023-03-23T22:00:09;13.30;;;6.75;;
43552;SDS011;29153;42.696;23.218;2023-03-23T22:02:40;15.30;;;7.35;;
43552;SDS011;29153;42.696;23.218;2023-03-23T22:05:07;17.45;;;8.58;;
43552;SDS011;29153;42.696;23.218;2023-03-23T22:07:35;14.45;;;7.83;;
43552;SDS011;29153;42.696;23.218;2023-03-23T22:10:04;13.50;;;7.72;;
43552;SDS011;29153;42.696;23.218;2023-03-23T22:12:34;16.10;;;7.60;;
43552;SDS011;29153;42.696;23.218;2023-03-23T22:15:03;14.70;;;7.10;;
43552;SDS011;29153;42.696;23.218;2023-03-23T22:17:32;14.78;;;7.97;;
43552;SDS011;29153;42.696;23.218;2023-03-23T22:20:05;14.23;;;8.03;;
43552;SDS011;29153;42.696;23.218;2023-03-23T22:22:36;13.40;;;7.20;;
43552;SDS011;29153;42.696;23.218;2023-03-23T22:25:04;17.23;;;9.20;;
43552;SDS011;29153;42.696;23.218;2023-03-23T22:27:33;15.98;;;7.10;;
43552;SDS011;29153;42.696;23.218;2023-03-23T22:30:00;16.90;;;8.55;;
43552;SDS011;29153;42.696;23.218;2023-03-23T22:32:28;15.30;;;8.68;;
43552;SDS011;29153;42.696;23.218;2023-03-23T22:34:56;14.95;;;8.08;;
43552;SDS011;29153;42.696;23.218;2023-03-23T22:37:23;16.48;;;8.15;;
43552;SDS011;29153;42.696;23.218;2023-03-23T22:39:51;14.73;;;7.60;;
43552;SDS011;29153;42.696;23.218;2023-03-23T22:42:19;16.65;;;8.38;;
43552;SDS011;29153;42.696;23.218;2023-03-23T22:44:46;14.50;;;7.17;;
43552;SDS011;29153;42.696;23.218;2023-03-23T22:47:14;14.65;;;7.92;;
43552;SDS011;29153;42.696;23.218;2023-03-23T22:49:42;15.13;;;6.15;;
43552;SDS011;29153;42.696;23.218;2023-03-23T22:52:09;12.53;;;7.12;;
43552;SDS011;29153;42.696;23.218;2023-03-23T22:54:37;18.27;;;8.85;;
43552;SDS011;29153;42.696;23.218;2023-03-23T22:57:04;17.35;;;8.75;;
43552;SDS011;29153;42.696;23.218;2023-03-23T22:59:32;15.03;;;8.73;;
43552;SDS011;29153;42.696;23.218;2023-03-23T23:02:00;14.70;;;7.97;;
43552;SDS011;29153;42.696;23.218;2023-03-23T23:04:27;13.05;;;7.55;;